Time;durP1;ratioP1;P1;durP2;ratioP2;P2;SDS_P1;SDS_P2;PMS_P1;PMS_P2;Temp;Humidity;BMP_temperature;BMP_pressure;BME280_temperature;BME280_humidity;BME280_pressure;Samples;Min_cycle;Max_cycle;Signal;HPM_P1;HPM_P2
2021/07/06 00:02:03;;;;;;;3.90;1.10;;;16.60;99.90;;;;;;4991227;28;20031;-86
2021/07/06 00:04:28;;;;;;;3.10;1.08;;;16.60;99.90;;;;;;4991359;28;20063;-86
2021/07/06 00:06:54;;;;;;;2.78;1.30;;;16.60;99.90;;;;;;4974781;28;20622;-86
2021/07/06 00:09:20;;;;;;;2.30;1.17;;;16.60;99.90;;;;;;4974389;28;20027;-87
2021/07/06 00:11:45;;;;;;;4.13;1.17;;;16.60;99.90;;;;;;4970776;28;20110;-86
2021/07/06 00:14:12;;;;;;;3.10;1.20;;;16.60;99.90;;;;;;4986220;28;20062;-86
2021/07/06 00:16:38;;;;;;;5.45;1.60;;;16.60;99.90;;;;;;4974685;28;20030;-86
2021/07/06 00:19:04;;;;;;;3.33;1.30;;;16.60;99.90;;;;;;4983187;28;20029;-85
2021/07/06 00:21:30;;;;;;;2.55;1.30;;;16.60;99.90;;;;;;4972790;28;20054;-86
2021/07/06 00:23:55;;;;;;;3.15;1.30;;;16.50;99.90;;;;;;4954910;28;20065;-85
2021/07/06 00:26:21;;;;;;;3.17;1.48;;;16.50;99.90;;;;;;4972687;28;20051;-86
2021/07/06 00:28:47;;;;;;;2.22;1.10;;;16.50;99.90;;;;;;4969046;28;20037;-86
2021/07/06 00:31:13;;;;;;;2.70;1.38;;;16.50;99.90;;;;;;4991680;28;20028;-85
2021/07/06 00:33:40;;;;;;;2.50;1.17;;;16.50;99.90;;;;;;4979193;28;20129;-86
2021/07/06 00:36:06;;;;;;;2.53;0.90;;;16.50;99.90;;;;;;4955214;28;20469;-86
2021/07/06 00:38:32;;;;;;;2.33;0.95;;;16.50;99.90;;;;;;4954856;28;20034;-85
2021/07/06 00:40:59;;;;;;;2.30;0.80;;;16.50;99.90;;;;;;4954937;28;20026;-86
2021/07/06 00:43:26;;;;;;;2.20;1.05;;;16.50;99.90;;;;;;4972170;28;20027;-85
2021/07/06 00:45:58;;;;;;;2.78;1.20;;;16.50;99.90;;;;;;4972388;28;20560;-86
2021/07/06 00:48:26;;;;;;;2.63;1.00;;;16.50;99.90;;;;;;4972918;28;20026;-85
2021/07/06 00:50:51;;;;;;;2.40;1.10;;;16.50;99.90;;;;;;4974431;28;20058;-86
2021/07/06 00:53:17;;;;;;;2.90;1.00;;;16.50;99.90;;;;;;4973030;28;20085;-86
2021/07/06 00:55:45;;;;;;;3.08;1.10;;;16.50;99.90;;;;;;4957517;28;20023;-86
2021/07/06 00:58:13;;;;;;;3.15;1.30;;;16.40;99.90;;;;;;4983330;28;20030;-86
2021/07/06 01:00:39;;;;;;;3.42;1.30;;;16.40;99.90;;;;;;4974873;28;20074;-86
2021/07/06 01:03:05;;;;;;;2.40;1.00;;;16.40;99.90;;;;;;4990340;28;20045;-85
2021/07/06 01:05:32;;;;;;;2.85;1.00;;;16.30;99.90;;;;;;4970067;28;20429;-85
2021/07/06 01:07:57;;;;;;;3.13;1.30;;;16.30;99.90;;;;;;4954891;28;20049;-85
2021/07/06 01:10:23;;;;;;;3.30;1.40;;;16.30;99.90;;;;;;4971871;28;20039;-86
2021/07/06 01:12:52;;;;;;;3.78;1.30;;;16.20;99.90;;;;;;4972029;28;20031;-85
2021/07/06 01:15:20;;;;;;;3.55;1.42;;;16.20;99.90;;;;;;4959264;28;20463;-86
2021/07/06 01:18:06;;;;;;;4.05;1.13;;;16.20;99.90;;;;;;4981420;28;20120;-86
2021/07/06 01:20:38;;;;;;;4.03;1.10;;;16.10;99.90;;;;;;4954425;28;20027;-85
2021/07/06 01:23:05;;;;;;;2.03;0.98;;;16.10;99.90;;;;;;4971601;28;20031;-85
2021/07/06 01:25:33;;;;;;;2.40;1.00;;;16.10;99.90;;;;;;4954169;28;20117;-85
2021/07/06 01:28:00;;;;;;;5.05;1.15;;;16.10;99.90;;;;;;4954133;28;20035;-86
2021/07/06 01:30:25;;;;;;;2.75;1.05;;;16.20;99.90;;;;;;4954071;28;20527;-86
2021/07/06 01:32:51;;;;;;;1.98;1.10;;;16.10;99.90;;;;;;4971647;28;20026;-85
2021/07/06 01:35:17;;;;;;;2.35;1.15;;;16.10;99.90;;;;;;4954301;28;20101;-86
2021/07/06 01:37:49;;;;;;;3.53;1.63;;;16.10;99.90;;;;;;4954274;28;20062;-85
2021/07/06 01:40:16;;;;;;;;;;;16.20;99.90;;;;;;4954695;28;20888;-86
2021/07/06 01:42:42;;;;;;;3.13;1.50;;;16.10;99.90;;;;;;4954236;28;19912;-85
2021/07/06 01:45:14;;;;;;;2.88;1.13;;;16.10;99.90;;;;;;4972135;28;20045;-85
2021/07/06 01:47:45;;;;;;;2.28;1.20;;;16.10;99.90;;;;;;4966268;28;20109;-86
2021/07/06 01:50:14;;;;;;;3.42;1.60;;;16.10;99.90;;;;;;4973185;28;20054;-85
2021/07/06 01:52:45;;;;;;;2.75;1.35;;;16.10;99.90;;;;;;4957500;28;20039;-86
2021/07/06 01:55:13;;;;;;;4.25;1.52;;;16.00;99.90;;;;;;4985595;28;20023;-85
2021/07/06 01:57:40;;;;;;;2.88;1.27;;;16.10;99.90;;;;;;5022811;23;20471;-78
2021/07/06 02:00:08;;;;;;;3.30;1.65;;;16.10;99.90;;;;;;5019389;28;20034;-79
2021/07/06 02:02:34;;;;;;;3.42;1.50;;;16.10;99.90;;;;;;5001812;28;20026;-79
2021/07/06 02:05:14;;;;;;;3.33;1.40;;;16.10;99.90;;;;;;4988092;28;20085;-79
2021/07/06 02:07:40;;;;;;;4.38;1.52;;;16.10;99.90;;;;;;5004999;28;20022;-80
2021/07/06 02:10:07;;;;;;;5.63;1.40;;;16.10;99.90;;;;;;5014779;28;20487;-80
2021/07/06 02:12:34;;;;;;;2.72;1.35;;;16.10;99.90;;;;;;5018131;28;20033;-78
2021/07/06 02:15:00;;;;;;;1.73;0.88;;;16.10;99.90;;;;;;4998375;28;20053;-79
2021/07/06 02:17:27;;;;;;;2.88;1.20;;;16.10;99.90;;;;;;4965525;28;20050;-78
2021/07/06 02:19:53;;;;;;;4.00;1.35;;;16.00;99.90;;;;;;5004282;28;20030;-80
2021/07/06 02:22:19;;;;;;;3.22;1.30;;;16.00;99.90;;;;;;5019281;28;20065;-81
2021/07/06 02:24:45;;;;;;;4.57;1.60;;;16.00;99.90;;;;;;4985030;28;20049;-78
2021/07/06 02:27:11;;;;;;;3.97;1.67;;;16.10;99.90;;;;;;4984194;28;20460;-79
2021/07/06 02:29:37;;;;;;;3.28;1.48;;;16.00;99.90;;;;;;4995514;28;20038;-79
2021/07/06 02:32:03;;;;;;;4.40;1.15;;;16.00;99.90;;;;;;5018181;28;20034;-79
2021/07/06 02:34:28;;;;;;;4.97;1.25;;;16.00;99.90;;;;;;5017642;28;20033;-80
2021/07/06 02:36:54;;;;;;;2.67;1.50;;;16.00;99.90;;;;;;5005710;28;20027;-80
2021/07/06 02:39:19;;;;;;;2.53;1.10;;;16.00;99.90;;;;;;5015905;28;20480;-78
2021/07/06 02:41:45;;;;;;;4.00;1.33;;;16.00;99.90;;;;;;5000283;28;20034;-79
2021/07/06 02:44:11;;;;;;;2.33;1.23;;;16.00;99.90;;;;;;5017607;28;20063;-79
2021/07/06 02:46:36;;;;;;;3.13;1.15;;;15.90;99.90;;;;;;5011005;28;20041;-78
2021/07/06 02:49:02;;;;;;;4.30;1.70;;;15.90;99.90;;;;;;5005955;28;20113;-78
2021/07/06 02:51:28;;;;;;;2.38;1.33;;;15.90;99.90;;;;;;4978877;28;20430;-80
2021/07/06 02:53:53;;;;;;;2.50;1.23;;;15.90;99.90;;;;;;5015964;28;20063;-79
2021/07/06 02:56:19;;;;;;;2.17;1.00;;;15.90;99.90;;;;;;5018147;28;20030;-80
2021/07/06 02:58:45;;;;;;;2.45;0.93;;;15.90;99.90;;;;;;5009906;28;20033;-79
2021/07/06 03:01:10;;;;;;;3.47;1.15;;;15.90;99.90;;;;;;4996549;28;20388;-79
2021/07/06 03:03:36;;;;;;;4.07;1.10;;;15.80;99.90;;;;;;5017930;28;20057;-80
2021/07/06 03:06:01;;;;;;;2.72;1.42;;;15.90;99.90;;;;;;5017576;28;20445;-80
2021/07/06 03:08:30;;;;;;;3.65;1.30;;;15.80;99.90;;;;;;5017708;28;20025;-80
2021/07/06 03:10:55;;;;;;;4.15;1.20;;;15.80;99.90;;;;;;4988136;28;20104;-80
2021/07/06 03:13:21;;;;;;;2.90;1.25;;;15.80;99.90;;;;;;4978995;28;20513;-80
2021/07/06 03:15:46;;;;;;;2.53;1.15;;;15.80;99.90;;;;;;4986344;28;20026;-79
2021/07/06 03:18:12;;;;;;;2.25;1.13;;;15.80;99.90;;;;;;4998861;28;20054;-80
2021/07/06 03:20:38;;;;;;;3.50;1.20;;;15.80;99.90;;;;;;4994985;28;20201;-80
2021/07/06 03:23:04;;;;;;;2.88;1.35;;;15.70;99.90;;;;;;4979537;28;20030;-79
2021/07/06 03:25:32;;;;;;;3.40;1.17;;;15.70;99.90;;;;;;4979892;28;20031;-79
2021/07/06 03:27:59;;;;;;;1.88;1.05;;;15.60;99.90;;;;;;4999318;28;20030;-80
2021/07/06 03:30:31;;;;;;;2.15;1.08;;;15.70;99.90;;;;;;5000403;28;20021;-77
2021/07/06 03:32:58;;;;;;;;;;;15.70;99.90;;;;;;5000498;28;20026;-79
2021/07/06 03:35:25;;;;;;;2.22;1.10;;;15.60;99.90;;;;;;5014492;28;19909;-80
2021/07/06 03:37:50;;;;;;;2.08;1.02;;;15.60;99.90;;;;;;4979043;28;20043;-79
2021/07/06 03:40:17;;;;;;;2.75;1.17;;;15.60;99.90;;;;;;4962542;28;20113;-80
2021/07/06 03:42:42;;;;;;;3.53;0.93;;;15.70;99.90;;;;;;4964204;28;20134;-80
2021/07/06 03:45:10;;;;;;;2.55;0.77;;;15.70;99.90;;;;;;4987436;28;20468;-80
2021/07/06 03:47:37;;;;;;;2.10;1.10;;;15.70;99.90;;;;;;4960137;28;20035;-78
2021/07/06 03:50:05;;;;;;;3.35;1.25;;;15.60;99.90;;;;;;4976008;28;20037;-79
2021/07/06 03:52:30;;;;;;;4.70;1.00;;;15.70;99.90;;;;;;4960140;28;20023;-79
2021/07/06 03:54:56;;;;;;;2.40;1.02;;;15.60;99.90;;;;;;4977028;28;20101;-79
2021/07/06 03:57:31;;;;;;;3.13;1.15;;;15.60;99.90;;;;;;4959290;28;20035;-80
2021/07/06 03:59:59;;;;;;;2.38;1.08;;;15.70;99.90;;;;;;4988829;28;20030;-79
2021/07/06 04:02:25;;;;;;;2.65;1.00;;;15.70;99.90;;;;;;5015357;28;20383;-79
2021/07/06 04:04:50;;;;;;;2.88;1.00;;;15.70;99.90;;;;;;5012930;28;20542;-80
2021/07/06 04:07:16;;;;;;;2.00;0.93;;;15.70;99.90;;;;;;4998122;28;20026;-79
2021/07/06 04:09:42;;;;;;;2.00;1.00;;;15.70;99.90;;;;;;4993791;28;20527;-79
2021/07/06 04:12:08;;;;;;;3.58;1.70;;;15.70;99.90;;;;;;4995602;28;20041;-80
2021/07/06 04:14:33;;;;;;;4.60;1.40;;;15.80;99.90;;;;;;5007309;28;20030;-79
2021/07/06 04:16:59;;;;;;;4.18;1.83;;;15.80;99.90;;;;;;4969644;28;20037;-78
2021/07/06 04:19:24;;;;;;;3.17;1.60;;;15.80;99.90;;;;;;4958806;28;20031;-79
2021/07/06 04:21:50;;;;;;;5.10;1.77;;;15.80;99.90;;;;;;4984599;28;20033;-80
2021/07/06 04:24:15;;;;;;;3.60;1.50;;;15.80;99.90;;;;;;4979777;28;20030;-79
2021/07/06 04:26:41;;;;;;;4.43;1.80;;;15.90;99.90;;;;;;4993928;28;20108;-79
2021/07/06 04:29:07;;;;;;;3.72;1.60;;;15.90;99.90;;;;;;4996266;28;20027;-79
2021/07/06 04:31:32;;;;;;;2.40;1.17;;;16.00;99.90;;;;;;4996075;28;20459;-79
2021/07/06 04:33:58;;;;;;;2.97;1.20;;;16.10;99.90;;;;;;4974819;28;20123;-78
2021/07/06 04:36:24;;;;;;;3.25;1.08;;;16.10;99.90;;;;;;4992322;28;20062;-79
2021/07/06 04:38:53;;;;;;;2.22;1.17;;;16.30;99.90;;;;;;4996207;28;20027;-80
2021/07/06 04:41:19;;;;;;;2.80;1.08;;;16.40;99.90;;;;;;4997229;28;20463;-80
2021/07/06 04:43:46;;;;;;;1.52;0.73;;;16.50;99.90;;;;;;4993888;28;20045;-80
2021/07/06 04:46:12;;;;;;;3.88;1.20;;;16.50;99.90;;;;;;4992252;28;20161;-81
2021/07/06 04:48:38;;;;;;;1.90;1.00;;;16.60;99.90;;;;;;4993589;28;20070;-80
2021/07/06 04:51:06;;;;;;;1.92;1.08;;;16.70;99.90;;;;;;4976315;28;20049;-81
2021/07/06 04:53:32;;;;;;;2.40;1.00;;;16.90;99.90;;;;;;4993333;28;20026;-79
2021/07/06 04:55:59;;;;;;;3.20;0.98;;;17.00;99.90;;;;;;4974126;28;20033;-81
2021/07/06 04:58:25;;;;;;;2.33;1.20;;;17.10;99.90;;;;;;4995065;28;20030;-80
2021/07/06 05:00:51;;;;;;;2.83;1.27;;;17.30;99.90;;;;;;4995854;28;20511;-80
2021/07/06 05:03:17;;;;;;;2.88;1.27;;;17.40;99.90;;;;;;4999019;28;20136;-80
2021/07/06 05:05:43;;;;;;;2.47;1.02;;;17.50;99.90;;;;;;4998961;28;20441;-81
2021/07/06 05:08:11;;;;;;;3.22;1.13;;;17.60;99.90;;;;;;4995071;28;20044;-79
2021/07/06 05:10:37;;;;;;;3.97;1.20;;;17.70;99.90;;;;;;5003329;28;20051;-80
2021/07/06 05:13:04;;;;;;;2.47;0.82;;;17.70;99.90;;;;;;4995860;28;20034;-80
2021/07/06 05:15:29;;;;;;;3.08;1.13;;;17.70;99.90;;;;;;4975782;28;20048;-78
2021/07/06 05:17:55;;;;;;;2.78;1.02;;;17.70;99.90;;;;;;4996560;28;20727;-80
2021/07/06 05:20:21;;;;;;;2.45;0.88;;;17.60;99.90;;;;;;4997616;28;20049;-81
2021/07/06 05:22:47;;;;;;;2.63;1.00;;;17.40;99.90;;;;;;5001998;28;20034;-81
2021/07/06 05:25:15;;;;;;;2.58;1.00;;;17.30;99.90;;;;;;4998086;28;20074;-81
2021/07/06 05:27:40;;;;;;;2.33;0.88;;;17.20;99.90;;;;;;5004340;28;20092;-79
2021/07/06 05:30:08;;;;;;;3.50;0.98;;;17.20;99.90;;;;;;5012833;28;20026;-79
2021/07/06 05:32:36;;;;;;;3.60;1.10;;;17.20;99.90;;;;;;4985623;28;20026;-79
2021/07/06 05:35:04;;;;;;;2.38;0.77;;;17.20;99.90;;;;;;4989511;28;20046;-79
2021/07/06 05:37:30;;;;;;;2.08;0.80;;;17.40;99.90;;;;;;4995789;28;20140;-78
2021/07/06 05:39:55;;;;;;;3.47;0.90;;;17.60;99.90;;;;;;4999999;28;20683;-81
2021/07/06 05:42:21;;;;;;;2.33;0.93;;;17.80;99.90;;;;;;4997044;28;20034;-79
2021/07/06 05:44:47;;;;;;;3.40;1.10;;;18.00;99.90;;;;;;5005254;28;20034;-79
2021/07/06 05:47:14;;;;;;;1.85;0.80;;;18.20;99.90;;;;;;4998664;28;20026;-79
2021/07/06 05:49:39;;;;;;;2.55;1.00;;;18.40;99.90;;;;;;4994783;28;20039;-79
2021/07/06 05:52:05;;;;;;;2.30;0.73;;;18.40;99.90;;;;;;4979173;28;20031;-79
2021/07/06 05:54:31;;;;;;;4.28;0.65;;;18.60;99.90;;;;;;4976167;28;20475;-79
2021/07/06 05:56:57;;;;;;;2.05;0.85;;;18.60;99.90;;;;;;4996183;28;20155;-80
2021/07/06 05:59:22;;;;;;;2.17;0.85;;;18.60;99.90;;;;;;4984438;28;20026;-80
2021/07/06 06:01:48;;;;;;;1.20;0.60;;;18.60;99.90;;;;;;4982626;28;20022;-79
2021/07/06 06:04:15;;;;;;;3.50;0.80;;;18.60;99.90;;;;;;5006034;28;20027;-80
2021/07/06 06:06:41;;;;;;;3.35;0.70;;;18.70;99.90;;;;;;5006151;28;20177;-80
2021/07/06 06:09:07;;;;;;;2.15;0.57;;;18.90;99.90;;;;;;4975765;28;20685;-80
2021/07/06 06:11:32;;;;;;;1.90;0.98;;;19.00;99.90;;;;;;4993057;28;20117;-81
2021/07/06 06:13:58;;;;;;;2.90;0.90;;;18.90;99.90;;;;;;4998456;28;20054;-80
2021/07/06 06:16:23;;;;;;;2.78;0.98;;;19.00;99.90;;;;;;4987318;28;20059;-79
2021/07/06 06:18:54;;;;;;;3.53;0.90;;;19.10;99.90;;;;;;4990342;28;20377;-81
2021/07/06 06:21:26;;;;;;;2.08;0.80;;;19.20;99.90;;;;;;4984447;28;20449;-79
2021/07/06 06:23:54;;;;;;;2.50;0.80;;;19.40;99.90;;;;;;4988299;28;20086;-79
2021/07/06 06:26:21;;;;;;;4.00;0.80;;;19.40;99.90;;;;;;4985891;28;20028;-79
2021/07/06 06:28:48;;;;;;;4.95;0.70;;;19.50;99.90;;;;;;4998386;28;20497;-79
2021/07/06 06:31:16;;;;;;;2.35;0.93;;;19.60;99.90;;;;;;5002085;28;20155;-79
2021/07/06 06:33:45;;;;;;;2.47;0.80;;;19.70;99.90;;;;;;4997291;28;20102;-80
2021/07/06 06:36:11;;;;;;;5.00;0.90;;;19.80;99.90;;;;;;5009984;28;20484;-79
2021/07/06 06:38:37;;;;;;;1.85;0.88;;;20.00;99.90;;;;;;5000098;28;20037;-80
2021/07/06 06:41:03;;;;;;;1.48;0.60;;;20.30;99.90;;;;;;4997418;28;20030;-80
2021/07/06 06:43:29;;;;;;;6.78;0.68;;;20.50;99.90;;;;;;5000725;28;20624;-80
2021/07/06 06:45:56;;;;;;;2.40;0.68;;;20.60;99.90;;;;;;5006832;28;20025;-80
2021/07/06 06:48:21;;;;;;;5.05;1.35;;;20.80;99.90;;;;;;4982139;28;20429;-81
2021/07/06 06:50:47;;;;;;;2.50;0.50;;;20.80;99.90;;;;;;4984115;28;20089;-80
2021/07/06 06:53:13;;;;;;;3.83;0.82;;;20.90;99.90;;;;;;4985674;28;20098;-80
2021/07/06 06:55:40;;;;;;;1.95;0.50;;;20.90;99.90;;;;;;4980127;28;20030;-80
2021/07/06 06:58:06;;;;;;;0.82;0.40;;;21.10;99.90;;;;;;4977896;28;20052;-80
2021/07/06 07:00:33;;;;;;;1.00;0.40;;;21.10;99.90;;;;;;4980783;28;20121;-81
2021/07/06 07:02:59;;;;;;;2.30;0.43;;;21.30;99.90;;;;;;4977254;28;20034;-79
2021/07/06 07:05:28;;;;;;;1.23;0.40;;;21.30;99.90;;;;;;4997807;28;20035;-79
2021/07/06 07:07:57;;;;;;;1.98;0.50;;;21.40;99.90;;;;;;4997863;28;20042;-80
2021/07/06 07:10:23;;;;;;;2.78;0.63;;;21.60;99.90;;;;;;4993030;28;20092;-79
2021/07/06 07:12:53;;;;;;;1.77;0.50;;;21.80;99.90;;;;;;4992917;28;20088;-78
2021/07/06 07:15:19;;;;;;;2.22;0.50;;;22.10;99.90;;;;;;4981099;28;20029;-80
2021/07/06 07:17:44;;;;;;;1.73;0.40;;;22.50;99.90;;;;;;4999250;28;20018;-81
2021/07/06 07:20:12;;;;;;;1.23;0.32;;;22.50;99.90;;;;;;4984074;28;20037;-80
2021/07/06 07:22:39;;;;;;;1.80;0.50;;;22.40;99.90;;;;;;4993122;28;20497;-80
2021/07/06 07:25:06;;;;;;;1.23;0.50;;;22.40;99.90;;;;;;5008613;28;20436;-80
2021/07/06 07:27:31;;;;;;;1.88;0.40;;;22.40;99.90;;;;;;4977627;28;20051;-81
2021/07/06 07:29:58;;;;;;;2.72;0.32;;;22.50;99.90;;;;;;4979132;28;20043;-81
2021/07/06 07:32:23;;;;;;;0.70;0.30;;;22.60;99.90;;;;;;4981994;28;20038;-81
2021/07/06 07:34:49;;;;;;;1.70;0.40;;;22.80;99.90;;;;;;4985357;28;20018;-81
2021/07/06 07:37:16;;;;;;;3.28;0.40;;;23.00;99.90;;;;;;5005053;28;20054;-82
2021/07/06 07:39:44;;;;;;;2.40;0.55;;;23.10;99.90;;;;;;5008475;28;20057;-81
2021/07/06 07:42:10;;;;;;;1.60;0.45;;;23.00;99.90;;;;;;5014584;28;20442;-81
2021/07/06 07:44:35;;;;;;;1.00;0.40;;;23.30;99.90;;;;;;5020169;28;20080;-81
2021/07/06 07:47:01;;;;;;;2.15;0.40;;;23.50;99.90;;;;;;4977310;28;20042;-82
2021/07/06 07:49:27;;;;;;;3.38;0.40;;;23.80;99.90;;;;;;4977816;28;20026;-81
2021/07/06 07:51:53;;;;;;;1.20;0.50;;;24.00;99.90;;;;;;4976466;28;20496;-83
2021/07/06 07:54:19;;;;;;;2.08;0.45;;;24.20;99.90;;;;;;4981659;28;20034;-81
2021/07/06 07:56:44;;;;;;;0.77;0.30;;;24.10;99.90;;;;;;4996106;28;20030;-81
2021/07/06 07:59:10;;;;;;;1.33;0.57;;;24.10;99.90;;;;;;5011676;23;20515;-84
2021/07/06 08:01:36;;;;;;;0.75;0.25;;;24.10;99.90;;;;;;4986645;28;20492;-85
2021/07/06 08:04:02;;;;;;;1.83;0.55;;;24.00;99.90;;;;;;4992087;28;20031;-86
2021/07/06 08:06:28;;;;;;;1.02;0.40;;;23.90;99.90;;;;;;4991821;28;20034;-86
2021/07/06 08:08:54;;;;;;;1.55;0.40;;;23.70;99.90;;;;;;4991249;28;20101;-86
2021/07/06 08:11:20;;;;;;;1.02;0.20;;;23.70;99.90;;;;;;4987357;28;20029;-86
2021/07/06 08:13:46;;;;;;;2.00;0.30;;;23.60;99.90;;;;;;4990206;28;20018;-85
2021/07/06 08:16:12;;;;;;;0.90;0.40;;;23.50;99.90;;;;;;4990216;28;20027;-88
2021/07/06 08:18:38;;;;;;;3.13;0.40;;;23.50;99.90;;;;;;4991320;28;20073;-88
2021/07/06 08:21:04;;;;;;;0.98;0.40;;;23.70;99.90;;;;;;4990538;28;20092;-88
2021/07/06 08:23:29;;;;;;;3.10;0.63;;;24.00;99.90;;;;;;4989423;28;20559;-86
2021/07/06 08:25:55;;;;;;;1.63;0.50;;;24.40;99.90;;;;;;4990207;28;20506;-85
2021/07/06 08:28:22;;;;;;;1.08;0.32;;;24.70;99.90;;;;;;4991121;28;20077;-86
2021/07/06 08:30:49;;;;;;;1.75;0.50;;;24.80;99.90;;;;;;4988717;28;20034;-85
2021/07/06 08:33:14;;;;;;;1.67;0.55;;;25.10;99.90;;;;;;4990302;28;20408;-85
2021/07/06 08:35:40;;;;;;;2.30;0.45;;;25.30;99.90;;;;;;4990063;28;20540;-85
2021/07/06 08:38:06;;;;;;;1.60;0.40;;;25.30;99.90;;;;;;4990749;28;20088;-85
2021/07/06 08:40:32;;;;;;;1.58;0.38;;;25.60;99.90;;;;;;4988131;28;20033;-86
2021/07/06 08:43:01;;;;;;;3.88;0.50;;;25.60;99.90;;;;;;4989739;28;20189;-85
2021/07/06 08:45:27;;;;;;;0.90;0.40;;;25.50;99.90;;;;;;4994304;28;20022;-85
2021/07/06 08:47:54;;;;;;;0.70;0.30;;;25.50;99.90;;;;;;4987856;28;20178;-84
2021/07/06 08:50:22;;;;;;;0.80;0.40;;;25.50;99.90;;;;;;4985696;28;20507;-85
2021/07/06 08:52:47;;;;;;;6.57;2.92;;;25.60;99.90;;;;;;4991147;28;20049;-85
2021/07/06 08:55:15;;;;;;;3.40;0.90;;;25.40;99.90;;;;;;4990046;28;20517;-85
2021/07/06 08:57:43;;;;;;;1.42;0.63;;;25.40;99.90;;;;;;4988921;28;20428;-86
2021/07/06 09:00:11;;;;;;;2.63;0.93;;;25.50;99.90;;;;;;4985295;28;20052;-85
2021/07/06 09:02:37;;;;;;;1.63;0.50;;;25.70;99.90;;;;;;4982032;28;20018;-85
2021/07/06 09:05:04;;;;;;;0.90;0.30;;;25.60;99.90;;;;;;4986779;28;20033;-85
2021/07/06 09:07:43;;;;;;;1.23;0.32;;;25.70;99.90;;;;;;4987337;28;20104;-84
2021/07/06 09:10:19;;;;;;;1.58;0.40;;;25.60;99.90;;;;;;4987515;28;20080;-85
2021/07/06 09:12:46;;;;;;;0.88;0.30;;;25.60;99.90;;;;;;4988911;28;20030;-85
2021/07/06 09:15:19;;;;;;;4.07;1.35;;;25.60;99.90;;;;;;4981399;28;20050;-85
2021/07/06 09:17:46;;;;;;;0.90;0.40;;;25.40;99.90;;;;;;4989238;28;20045;-85
2021/07/06 09:20:16;;;;;;;1.35;0.30;;;25.30;99.90;;;;;;4971789;28;20027;-85
2021/07/06 09:22:42;;;;;;;;;;;25.10;99.90;;;;;;4988335;28;20065;-85
2021/07/06 09:25:10;;;;;;;3.70;0.60;;;25.10;99.90;;;;;;4989473;28;19953;-86
2021/07/06 09:27:38;;;;;;;1.98;0.40;;;25.20;99.90;;;;;;4990222;28;20030;-85
2021/07/06 09:30:14;;;;;;;0.93;0.40;;;25.20;99.90;;;;;;4989038;28;20117;-86
2021/07/06 09:32:43;;;;;;;1.20;0.47;;;25.00;99.90;;;;;;4989394;28;20029;-85
2021/07/06 09:35:10;;;;;;;2.38;0.60;;;24.80;99.90;;;;;;4989087;28;20504;-85
2021/07/06 09:38:06;;;;;;;1.77;0.70;;;24.70;99.90;;;;;;4988202;28;20080;-84
2021/07/06 09:40:39;;;;;;;0.95;0.40;;;24.40;99.90;;;;;;4988819;28;20096;-85
2021/07/06 09:43:19;;;;;;;4.20;0.77;;;23.70;99.90;;;;;;4989400;28;20027;-85
2021/07/06 09:46:01;;;;;;;1.85;0.55;;;23.30;99.90;;;;;;4990664;28;20030;-85
2021/07/06 09:48:28;;;;;;;3.05;0.80;;;22.90;99.90;;;;;;4989006;28;20069;-85
2021/07/06 09:51:20;;;;;;;1.67;0.60;;;22.60;99.90;;;;;;4990930;28;20030;-86
2021/07/06 09:53:53;;;;;;;0.95;0.40;;;22.60;99.90;;;;;;4990268;28;20037;-87
2021/07/06 09:56:22;;;;;;;0.60;0.30;;;22.30;99.90;;;;;;4982969;28;20369;-86
2021/07/06 09:59:03;;;;;;;2.17;0.40;;;22.40;99.90;;;;;;4980961;28;20066;-87
2021/07/06 10:01:29;;;;;;;0.65;0.35;;;22.50;99.90;;;;;;4989045;28;20027;-87
2021/07/06 10:03:56;;;;;;;0.88;0.35;;;22.60;99.90;;;;;;4985589;28;20089;-87
2021/07/06 10:06:25;;;;;;;0.82;0.30;;;22.90;99.90;;;;;;4985120;28;20109;-86
2021/07/06 10:08:52;;;;;;;0.20;0.20;;;23.10;99.90;;;;;;4986740;28;20046;-86
2021/07/06 10:11:18;;;;;;;1.25;0.28;;;23.30;99.90;;;;;;4985108;28;20069;-86
2021/07/06 10:13:44;;;;;;;1.67;0.30;;;23.40;99.90;;;;;;4986763;28;20030;-87
2021/07/06 10:16:13;;;;;;;0.32;0.20;;;23.60;99.90;;;;;;4981040;28;20018;-87
2021/07/06 10:18:38;;;;;;;0.55;0.20;;;23.60;99.90;;;;;;4991352;28;20030;-86
2021/07/06 10:21:05;;;;;;;0.20;0.10;;;23.50;99.90;;;;;;4990493;28;20475;-85
2021/07/06 10:23:34;;;;;;;0.28;0.10;;;23.40;99.90;;;;;;4989307;28;20499;-86
2021/07/06 10:26:02;;;;;;;0.28;0.10;;;23.40;99.90;;;;;;4992102;28;20060;-87
2021/07/06 10:28:29;;;;;;;0.52;0.20;;;23.50;99.90;;;;;;4992620;28;20022;-86
2021/07/06 10:30:55;;;;;;;0.77;0.20;;;23.40;99.90;;;;;;4990756;28;20026;-86
2021/07/06 10:33:23;;;;;;;0.30;0.17;;;23.60;99.90;;;;;;4993660;28;20030;-87
2021/07/06 10:35:50;;;;;;;0.55;0.10;;;23.60;99.90;;;;;;4992300;28;20476;-86
2021/07/06 10:38:42;;;;;;;0.10;0.05;;;23.70;99.90;;;;;;4980492;28;20098;-87
2021/07/06 10:41:14;;;;;;;0.32;0.15;;;23.70;99.90;;;;;;4989881;28;20496;-86
2021/07/06 10:43:42;;;;;;;0.30;0.10;;;23.70;99.90;;;;;;4992038;28;20026;-86
2021/07/06 10:46:21;;;;;;;0.45;0.10;;;23.60;99.90;;;;;;4987318;28;20035;-86
2021/07/06 10:49:03;;;;;;;0.25;0.10;;;23.40;99.90;;;;;;4991272;28;20026;-85
2021/07/06 10:51:35;;;;;;;0.70;0.13;;;23.40;99.90;;;;;;4994205;28;20408;-85
2021/07/06 10:54:08;;;;;;;0.30;0.17;;;23.50;99.90;;;;;;4996546;28;20166;-86
2021/07/06 10:56:35;;;;;;;1.25;0.30;;;23.40;99.90;;;;;;4988323;28;20029;-86
2021/07/06 10:59:03;;;;;;;0.40;0.10;;;23.50;99.90;;;;;;4975934;28;20062;-86
2021/07/06 11:01:37;;;;;;;0.20;0.10;;;23.60;99.90;;;;;;4992707;28;20037;-86
2021/07/06 11:04:08;;;;;;;0.25;0.10;;;23.80;99.90;;;;;;4988478;28;20042;-88
2021/07/06 11:06:46;;;;;;;0.37;0.20;;;23.90;99.90;;;;;;4991548;28;20026;-87
2021/07/06 11:09:18;;;;;;;0.80;0.30;;;24.00;99.90;;;;;;4991127;28;20317;-86
2021/07/06 11:11:44;;;;;;;0.40;0.10;;;23.70;99.90;;;;;;4992840;28;20026;-86
2021/07/06 11:14:19;;;;;;;0.85;0.17;;;23.70;99.90;;;;;;4987929;28;20045;-86
2021/07/06 11:17:03;;;;;;;0.50;0.10;;;24.00;99.90;;;;;;4976830;28;20023;-86
2021/07/06 11:19:40;;;;;;;0.80;0.20;;;24.10;99.90;;;;;;4990908;28;20035;-86
2021/07/06 11:22:14;;;;;;;0.85;0.20;;;24.20;99.90;;;;;;4978284;28;20035;-87
2021/07/06 11:24:41;;;;;;;0.40;0.15;;;24.40;99.90;;;;;;4985189;28;20037;-87
2021/07/06 11:27:08;;;;;;;0.17;0.10;;;24.50;99.90;;;;;;4991762;28;20121;-87
2021/07/06 11:29:38;;;;;;;0.63;0.28;;;24.50;99.90;;;;;;4992082;28;20026;-86
2021/07/06 11:32:15;;;;;;;0.35;0.10;;;24.60;99.90;;;;;;4993827;28;20029;-85
2021/07/06 11:34:41;;;;;;;0.08;0.08;;;24.70;99.90;;;;;;4994829;28;20060;-86
2021/07/06 11:37:15;;;;;;;0.30;0.10;;;24.80;99.90;;;;;;4996539;28;20041;-86
2021/07/06 11:39:41;;;;;;;0.82;0.10;;;24.90;99.90;;;;;;4991965;28;20025;-86
2021/07/06 11:42:07;;;;;;;0.32;0.10;;;24.40;99.90;;;;;;4995387;28;20037;-87
2021/07/06 11:44:33;;;;;;;1.20;0.20;;;24.20;99.90;;;;;;4994247;28;20428;-87
2021/07/06 11:47:13;;;;;;;0.20;0.10;;;24.00;99.90;;;;;;4990945;28;20023;-85
2021/07/06 11:49:39;;;;;;;0.20;0.10;;;23.80;99.90;;;;;;4990655;28;20112;-86
2021/07/06 11:52:05;;;;;;;0.20;0.10;;;23.70;99.90;;;;;;4996452;28;20030;-86
2021/07/06 11:54:31;;;;;;;0.25;0.10;;;23.60;99.90;;;;;;4995772;28;20156;-87
2021/07/06 11:57:08;;;;;;;0.30;0.08;;;23.50;99.90;;;;;;4993367;28;20412;-86
2021/07/06 11:59:35;;;;;;;1.13;0.20;;;23.40;99.90;;;;;;4994058;28;20038;-86
2021/07/06 12:02:12;;;;;;;0.60;0.20;;;23.50;99.90;;;;;;4994128;28;20545;-87
2021/07/06 12:04:38;;;;;;;0.40;0.10;;;23.60;99.90;;;;;;4994545;28;20030;-86
2021/07/06 12:07:05;;;;;;;0.38;0.15;;;23.70;99.90;;;;;;4980167;28;20572;-86
2021/07/06 12:09:31;;;;;;;0.40;0.10;;;23.60;99.90;;;;;;4985657;28;20122;-86
2021/07/06 12:12:12;;;;;;;1.10;0.13;;;23.70;99.90;;;;;;4993213;28;20081;-86
2021/07/06 12:14:49;;;;;;;0.47;0.10;;;23.80;99.90;;;;;;4992512;28;20034;-86
2021/07/06 12:17:29;;;;;;;0.22;0.10;;;23.70;99.90;;;;;;4992951;28;20461;-87
2021/07/06 12:19:56;;;;;;;0.63;0.10;;;24.10;99.90;;;;;;4992845;28;20377;-86
2021/07/06 12:22:23;;;;;;;0.52;0.10;;;24.30;99.90;;;;;;4993985;28;20030;-87
2021/07/06 12:24:52;;;;;;;0.60;0.10;;;24.50;99.90;;;;;;4984682;28;20039;-86
2021/07/06 12:27:18;;;;;;;0.20;0.10;;;24.40;99.90;;;;;;4994243;28;20392;-87
2021/07/06 12:29:52;;;;;;;0.43;0.10;;;24.10;99.90;;;;;;4991282;28;20026;-87
2021/07/06 12:32:18;;;;;;;0.47;0.10;;;24.10;99.90;;;;;;4993762;28;20027;-87
2021/07/06 12:34:50;;;;;;;0.30;0.10;;;23.80;99.90;;;;;;4992075;28;20100;-87
2021/07/06 12:37:16;;;;;;;0.30;0.10;;;23.70;99.90;;;;;;4991632;28;20026;-86
2021/07/06 12:39:45;;;;;;;0.68;0.10;;;23.70;99.90;;;;;;4988561;28;20027;-87
2021/07/06 12:42:14;;;;;;;1.02;0.20;;;23.80;99.90;;;;;;4973893;28;20027;-87
2021/07/06 12:44:43;;;;;;;0.60;0.20;;;24.00;99.90;;;;;;4987273;28;20441;-87
2021/07/06 12:47:30;;;;;;;0.63;0.20;;;24.20;99.90;;;;;;4989974;28;20026;-87
2021/07/06 12:49:58;;;;;;;0.63;0.10;;;24.30;99.90;;;;;;4982998;28;20034;-87
2021/07/06 12:52:26;;;;;;;0.55;0.20;;;24.20;99.90;;;;;;4988980;28;20069;-86